sensor_id;sensor_type;location;lat;lon;timestamp;pressure;altitude;pressure_sealevel;temperature;humidity
2339;BME280;1180;51.438;6.978;2022-11-20T00:01:43;99946.25;;;3.16;74.84
2339;BME280;1180;51.438;6.978;2022-11-20T00:04:10;99944.47;;;3.18;75.21
2339;BME280;1180;51.438;6.978;2022-11-20T00:06:36;99946.66;;;3.29;75.24
2339;BME280;1180;51.438;6.978;2022-11-20T00:09:01;99945.91;;;3.25;74.82
2339;BME280;1180;51.438;6.978;2022-11-20T00:11:28;99932.19;;;3.32;74.73
2339;BME280;1180;51.438;6.978;2022-11-20T00:13:57;99928.00;;;3.31;74.45
2339;BME280;1180;51.438;6.978;2022-11-20T00:16:24;99934.03;;;3.27;74.94
2339;BME280;1180;51.438;6.978;2022-11-20T00:18:50;99940.72;;;3.30;74.77
2339;BME280;1180;51.438;6.978;2022-11-20T00:21:24;99929.94;;;3.23;75.33
2339;BME280;1180;51.438;6.978;2022-11-20T00:23:51;99933.34;;;3.22;75.46
2339;BME280;1180;51.438;6.978;2022-11-20T00:26:18;99936.66;;;3.24;74.90
2339;BME280;1180;51.438;6.978;2022-11-20T00:28:49;99928.38;;;3.19;75.03
2339;BME280;1180;51.438;6.978;2022-11-20T00:31:15;99927.81;;;3.11;75.32
2339;BME280;1180;51.438;6.978;2022-11-20T00:33:41;99920.44;;;3.05;75.31
2339;BME280;1180;51.438;6.978;2022-11-20T00:36:15;99923.53;;;3.13;75.67
2339;BME280;1180;51.438;6.978;2022-11-20T00:38:41;99934.31;;;3.20;75.20
2339;BME280;1180;51.438;6.978;2022-11-20T00:41:09;99921.31;;;3.03;76.31
2339;BME280;1180;51.438;6.978;2022-11-20T00:43:35;99928.94;;;3.02;75.96
2339;BME280;1180;51.438;6.978;2022-11-20T00:46:09;99924.13;;;2.94;76.48
2339;BME280;1180;51.438;6.978;2022-11-20T00:48:34;99924.91;;;2.96;76.74
2339;BME280;1180;51.438;6.978;2022-11-20T00:51:00;99923.41;;;2.91;76.83
2339;BME280;1180;51.438;6.978;2022-11-20T00:53:25;99927.63;;;2.90;77.24
2339;BME280;1180;51.438;6.978;2022-11-20T00:55:56;99932.47;;;2.98;77.39
2339;BME280;1180;51.438;6.978;2022-11-20T00:58:22;99919.47;;;3.07;77.00
2339;BME280;1180;51.438;6.978;2022-11-20T01:00:47;99930.34;;;3.11;76.73
2339;BME280;1180;51.438;6.978;2022-11-20T01:03:14;99932.69;;;3.17;76.78
2339;BME280;1180;51.438;6.978;2022-11-20T01:05:40;99931.91;;;3.15;77.27
2339;BME280;1180;51.438;6.978;2022-11-20T01:08:05;99932.22;;;3.31;76.90
2339;BME280;1180;51.438;6.978;2022-11-20T01:10:30;99923.97;;;3.24;76.58
2339;BME280;1180;51.438;6.978;2022-11-20T01:12:56;99928.53;;;3.40;76.58
2339;BME280;1180;51.438;6.978;2022-11-20T01:15:41;99917.00;;;3.31;76.51
2339;BME280;1180;51.438;6.978;2022-11-20T01:18:06;99919.78;;;3.49;76.33
2339;BME280;1180;51.438;6.978;2022-11-20T01:20:35;99916.75;;;3.39;76.27
2339;BME280;1180;51.438;6.978;2022-11-20T01:23:01;99903.28;;;3.37;76.34
2339;BME280;1180;51.438;6.978;2022-11-20T01:25:27;99909.94;;;3.65;75.23
2339;BME280;1180;51.438;6.978;2022-11-20T01:27:53;99900.97;;;3.54;75.76
2339;BME280;1180;51.438;6.978;2022-11-20T01:30:18;99898.69;;;3.46;75.38
2339;BME280;1180;51.438;6.978;2022-11-20T01:32:43;99900.69;;;3.38;76.33
2339;BME280;1180;51.438;6.978;2022-11-20T01:35:09;99895.50;;;3.41;76.96
2339;BME280;1180;51.438;6.978;2022-11-20T01:37:35;99897.25;;;3.39;76.56
2339;BME280;1180;51.438;6.978;2022-11-20T01:40:00;99893.19;;;3.35;76.93
2339;BME280;1180;51.438;6.978;2022-11-20T01:42:26;99889.00;;;3.34;76.96
2339;BME280;1180;51.438;6.978;2022-11-20T01:51:33;99908.72;;;3.26;77.81
2339;BME280;1180;51.438;6.978;2022-11-20T01:54:03;99912.78;;;3.31;77.73
2339;BME280;1180;51.438;6.978;2022-11-20T01:56:33;99907.78;;;3.28;77.69
2339;BME280;1180;51.438;6.978;2022-11-20T01:59:02;99905.94;;;3.34;77.70
2339;BME280;1180;51.438;6.978;2022-11-20T02:01:29;99901.63;;;3.36;77.73
2339;BME280;1180;51.438;6.978;2022-11-20T02:03:54;99891.09;;;3.46;77.64
2339;BME280;1180;51.438;6.978;2022-11-20T02:06:26;99892.97;;;3.41;77.62
2339;BME280;1180;51.438;6.978;2022-11-20T02:08:53;99888.72;;;3.42;77.47
2339;BME280;1180;51.438;6.978;2022-11-20T02:11:19;99884.34;;;3.45;78.21
2339;BME280;1180;51.438;6.978;2022-11-20T02:13:45;99877.44;;;3.51;78.34
2339;BME280;1180;51.438;6.978;2022-11-20T02:16:18;99883.16;;;3.56;78.27
2339;BME280;1180;51.438;6.978;2022-11-20T02:18:45;99883.94;;;3.58;78.62
2339;BME280;1180;51.438;6.978;2022-11-20T02:24:21;99871.19;;;3.59;77.48
2339;BME280;1180;51.438;6.978;2022-11-20T02:29:42;99877.63;;;3.68;76.98
2339;BME280;1180;51.438;6.978;2022-11-20T02:32:26;99875.09;;;3.68;76.75
2339;BME280;1180;51.438;6.978;2022-11-20T02:34:52;99875.22;;;3.65;76.75
2339;BME280;1180;51.438;6.978;2022-11-20T02:37:19;99865.72;;;3.70;76.88
2339;BME280;1180;51.438;6.978;2022-11-20T02:39:49;99864.84;;;3.71;76.52
2339;BME280;1180;51.438;6.978;2022-11-20T02:42:15;99862.94;;;3.76;76.55
2339;BME280;1180;51.438;6.978;2022-11-20T02:44:40;99859.00;;;3.69;76.88
2339;BME280;1180;51.438;6.978;2022-11-20T02:47:06;99860.41;;;3.76;77.21
2339;BME280;1180;51.438;6.978;2022-11-20T02:49:31;99862.75;;;3.83;77.52
2339;BME280;1180;51.438;6.978;2022-11-20T02:51:57;99861.66;;;3.88;77.42
2339;BME280;1180;51.438;6.978;2022-11-20T02:54:23;99855.81;;;3.86;76.90
2339;BME280;1180;51.438;6.978;2022-11-20T02:56:48;99849.09;;;3.85;77.15
2339;BME280;1180;51.438;6.978;2022-11-20T02:59:13;99862.50;;;3.89;77.18
2339;BME280;1180;51.438;6.978;2022-11-20T03:01:39;99860.13;;;3.84;77.78
2339;BME280;1180;51.438;6.978;2022-11-20T03:04:04;99859.13;;;3.88;77.04
2339;BME280;1180;51.438;6.978;2022-11-20T03:06:30;99861.25;;;3.77;77.61
2339;BME280;1180;51.438;6.978;2022-11-20T03:08:55;99859.34;;;3.82;78.05
2339;BME280;1180;51.438;6.978;2022-11-20T03:11:20;99850.81;;;3.85;78.08
2339;BME280;1180;51.438;6.978;2022-11-20T03:13:46;99848.97;;;3.88;78.20
2339;BME280;1180;51.438;6.978;2022-11-20T03:16:17;99848.16;;;3.88;78.35
2339;BME280;1180;51.438;6.978;2022-11-20T03:18:43;99848.84;;;3.92;78.09
2339;BME280;1180;51.438;6.978;2022-11-20T03:21:09;99851.94;;;4.00;78.09
2339;BME280;1180;51.438;6.978;2022-11-20T03:23:36;99847.31;;;4.10;78.59
2339;BME280;1180;51.438;6.978;2022-11-20T03:28:39;99852.59;;;4.05;78.78
2339;BME280;1180;51.438;6.978;2022-11-20T03:31:13;99853.59;;;4.01;77.96
2339;BME280;1180;51.438;6.978;2022-11-20T03:33:40;99844.13;;;4.04;78.16
2339;BME280;1180;51.438;6.978;2022-11-20T03:36:08;99853.84;;;4.17;77.49
2339;BME280;1180;51.438;6.978;2022-11-20T03:38:35;99848.63;;;4.20;78.14
2339;BME280;1180;51.438;6.978;2022-11-20T03:41:03;99846.31;;;4.14;77.38
2339;BME280;1180;51.438;6.978;2022-11-20T03:43:29;99845.22;;;4.21;77.05
2339;BME280;1180;51.438;6.978;2022-11-20T03:45:54;99840.59;;;4.31;76.33
2339;BME280;1180;51.438;6.978;2022-11-20T03:48:19;99841.53;;;4.28;76.76
2339;BME280;1180;51.438;6.978;2022-11-20T03:50:45;99832.31;;;4.26;77.22
2339;BME280;1180;51.438;6.978;2022-11-20T03:53:13;99832.69;;;4.16;77.30
2339;BME280;1180;51.438;6.978;2022-11-20T03:55:38;99829.75;;;4.26;77.50
2339;BME280;1180;51.438;6.978;2022-11-20T03:58:03;99827.22;;;4.26;77.10
2339;BME280;1180;51.438;6.978;2022-11-20T04:00:29;99837.25;;;4.29;77.14
2339;BME280;1180;51.438;6.978;2022-11-20T04:02:58;99838.16;;;4.28;76.91
2339;BME280;1180;51.438;6.978;2022-11-20T04:05:23;99835.13;;;4.40;76.60
2339;BME280;1180;51.438;6.978;2022-11-20T04:07:49;99836.06;;;4.38;76.15
2339;BME280;1180;51.438;6.978;2022-11-20T04:10:14;99833.78;;;4.31;76.80
2339;BME280;1180;51.438;6.978;2022-11-20T04:12:39;99830.78;;;4.22;76.84
2339;BME280;1180;51.438;6.978;2022-11-20T04:15:05;99833.28;;;4.23;77.41
2339;BME280;1180;51.438;6.978;2022-11-20T04:17:30;99830.44;;;4.31;76.87
2339;BME280;1180;51.438;6.978;2022-11-20T04:19:55;99838.75;;;4.34;76.92
2339;BME280;1180;51.438;6.978;2022-11-20T04:22:21;99834.84;;;4.48;76.25
2339;BME280;1180;51.438;6.978;2022-11-20T04:24:46;99837.47;;;4.45;76.84
2339;BME280;1180;51.438;6.978;2022-11-20T04:27:11;99838.31;;;4.45;76.97
2339;BME280;1180;51.438;6.978;2022-11-20T04:29:37;99835.81;;;4.44;77.01
2339;BME280;1180;51.438;6.978;2022-11-20T04:32:02;99833.34;;;4.42;76.96
2339;BME280;1180;51.438;6.978;2022-11-20T04:34:27;99837.38;;;4.48;77.58
2339;BME280;1180;51.438;6.978;2022-11-20T04:36:53;99838.19;;;4.48;76.38
2339;BME280;1180;51.438;6.978;2022-11-20T04:39:18;99837.25;;;4.51;76.64
2339;BME280;1180;51.438;6.978;2022-11-20T04:41:43;99830.06;;;4.40;76.76
2339;BME280;1180;51.438;6.978;2022-11-20T04:44:09;99830.94;;;4.39;76.93
2339;BME280;1180;51.438;6.978;2022-11-20T04:46:37;99835.00;;;4.43;76.75
2339;BME280;1180;51.438;6.978;2022-11-20T04:49:03;99831.72;;;4.41;77.14
2339;BME280;1180;51.438;6.978;2022-11-20T04:51:29;99834.13;;;4.44;78.04
2339;BME280;1180;51.438;6.978;2022-11-20T04:53:55;99827.22;;;4.48;78.40
2339;BME280;1180;51.438;6.978;2022-11-20T04:56:20;99830.13;;;4.59;78.13
2339;BME280;1180;51.438;6.978;2022-11-20T04:58:46;99823.59;;;4.74;77.67
2339;BME280;1180;51.438;6.978;2022-11-20T05:01:13;99831.00;;;4.79;77.49
2339;BME280;1180;51.438;6.978;2022-11-20T05:03:40;99828.81;;;4.71;76.63
2339;BME280;1180;51.438;6.978;2022-11-20T05:06:07;99830.56;;;4.69;77.01
2339;BME280;1180;51.438;6.978;2022-11-20T05:08:33;99832.88;;;4.75;77.56
2339;BME280;1180;51.438;6.978;2022-11-20T05:11:06;99837.38;;;4.89;77.63
2339;BME280;1180;51.438;6.978;2022-11-20T05:13:33;99832.06;;;4.94;77.38
2339;BME280;1180;51.438;6.978;2022-11-20T05:16:07;99828.09;;;4.88;77.92
2339;BME280;1180;51.438;6.978;2022-11-20T05:18:33;99833.84;;;4.92;77.48
2339;BME280;1180;51.438;6.978;2022-11-20T05:20:59;99831.06;;;4.98;77.22
2339;BME280;1180;51.438;6.978;2022-11-20T05:23:25;99842.31;;;4.93;77.64
2339;BME280;1180;51.438;6.978;2022-11-20T05:25:54;99834.38;;;4.80;77.97
2339;BME280;1180;51.438;6.978;2022-11-20T05:28:20;99836.47;;;4.90;77.79
2339;BME280;1180;51.438;6.978;2022-11-20T05:30:45;99833.47;;;5.01;77.15
2339;BME280;1180;51.438;6.978;2022-11-20T05:33:11;99829.03;;;5.06;76.81
2339;BME280;1180;51.438;6.978;2022-11-20T05:35:36;99825.19;;;5.17;76.84
2339;BME280;1180;51.438;6.978;2022-11-20T05:38:01;99826.00;;;5.17;75.68
2339;BME280;1180;51.438;6.978;2022-11-20T05:40:27;99829.94;;;5.25;75.58
2339;BME280;1180;51.438;6.978;2022-11-20T05:42:52;99830.38;;;5.34;75.50
2339;BME280;1180;51.438;6.978;2022-11-20T05:45:17;99824.28;;;5.18;76.26
2339;BME280;1180;51.438;6.978;2022-11-20T05:47:43;99825.19;;;5.17;76.46
2339;BME280;1180;51.438;6.978;2022-11-20T05:50:08;99836.59;;;5.27;76.59
2339;BME280;1180;51.438;6.978;2022-11-20T05:52:33;99826.03;;;5.37;76.37
2339;BME280;1180;51.438;6.978;2022-11-20T05:54:59;99827.06;;;5.32;75.86
2339;BME280;1180;51.438;6.978;2022-11-20T05:57:24;99836.22;;;5.37;75.92
2339;BME280;1180;51.438;6.978;2022-11-20T05:59:49;99825.88;;;5.40;75.86
2339;BME280;1180;51.438;6.978;2022-11-20T06:02:14;99830.91;;;5.41;75.75
2339;BME280;1180;51.438;6.978;2022-11-20T06:04:40;99817.97;;;5.46;75.36
2339;BME280;1180;51.438;6.978;2022-11-20T06:07:05;99814.34;;;5.32;76.06
2339;BME280;1180;51.438;6.978;2022-11-20T06:09:31;99809.66;;;5.42;76.27
2339;BME280;1180;51.438;6.978;2022-11-20T06:11:57;99817.09;;;5.47;76.21
2339;BME280;1180;51.438;6.978;2022-11-20T06:14:22;99813.22;;;5.38;76.71
2339;BME280;1180;51.438;6.978;2022-11-20T06:16:48;99815.09;;;5.54;76.70
2339;BME280;1180;51.438;6.978;2022-11-20T06:19:13;99807.31;;;5.57;76.53
2339;BME280;1180;51.438;6.978;2022-11-20T06:21:38;99812.31;;;5.58;75.90
2339;BME280;1180;51.438;6.978;2022-11-20T06:24:04;99822.59;;;5.57;75.98
2339;BME280;1180;51.438;6.978;2022-11-20T06:26:30;99816.88;;;5.52;76.54
2339;BME280;1180;51.438;6.978;2022-11-20T06:28:55;99831.09;;;5.75;75.72
2339;BME280;1180;51.438;6.978;2022-11-20T06:31:25;99825.25;;;5.73;76.20
2339;BME280;1180;51.438;6.978;2022-11-20T06:33:51;99826.69;;;5.59;76.70
2339;BME280;1180;51.438;6.978;2022-11-20T06:36:19;99821.00;;;5.54;76.74
2339;BME280;1180;51.438;6.978;2022-11-20T06:38:45;99823.06;;;5.46;77.11
2339;BME280;1180;51.438;6.978;2022-11-20T06:41:14;99827.59;;;5.39;77.52
2339;BME280;1180;51.438;6.978;2022-11-20T06:43:39;99829.66;;;5.50;77.32
2339;BME280;1180;51.438;6.978;2022-11-20T06:46:05;99826.97;;;5.53;77.16
2339;BME280;1180;51.438;6.978;2022-11-20T06:48:31;99827.59;;;5.58;77.28
2339;BME280;1180;51.438;6.978;2022-11-20T06:50:56;99838.16;;;5.51;77.40
2339;BME280;1180;51.438;6.978;2022-11-20T06:53:23;99843.69;;;5.40;77.44
2339;BME280;1180;51.438;6.978;2022-11-20T06:55:50;99839.78;;;5.32;78.02
2339;BME280;1180;51.438;6.978;2022-11-20T06:58:16;99837.03;;;5.37;77.91
2339;BME280;1180;51.438;6.978;2022-11-20T07:00:42;99842.19;;;5.35;77.72
2339;BME280;1180;51.438;6.978;2022-11-20T07:03:09;99843.22;;;5.31;77.96
2339;BME280;1180;51.438;6.978;2022-11-20T07:05:35;99836.88;;;5.21;78.74
2339;BME280;1180;51.438;6.978;2022-11-20T07:08:02;99846.16;;;5.22;78.49
2339;BME280;1180;51.438;6.978;2022-11-20T07:10:28;99840.63;;;5.12;78.40
2339;BME280;1180;51.438;6.978;2022-11-20T07:12:54;99852.44;;;5.13;78.75
2339;BME280;1180;51.438;6.978;2022-11-20T07:15:21;99858.06;;;5.22;78.76
2339;BME280;1180;51.438;6.978;2022-11-20T07:17:46;99858.25;;;5.17;78.56
2339;BME280;1180;51.438;6.978;2022-11-20T07:20:12;99860.78;;;5.17;79.05
2339;BME280;1180;51.438;6.978;2022-11-20T07:22:39;99862.44;;;5.18;79.04
2339;BME280;1180;51.438;6.978;2022-11-20T07:25:06;99862.53;;;5.16;79.73
2339;BME280;1180;51.438;6.978;2022-11-20T07:27:32;99860.88;;;5.15;79.30
2339;BME280;1180;51.438;6.978;2022-11-20T07:29:57;99850.47;;;5.20;79.67
2339;BME280;1180;51.438;6.978;2022-11-20T07:32:23;99857.53;;;5.13;79.43
2339;BME280;1180;51.438;6.978;2022-11-20T07:34:48;99849.50;;;5.03;79.70
2339;BME280;1180;51.438;6.978;2022-11-20T07:37:14;99852.00;;;5.24;79.31
2339;BME280;1180;51.438;6.978;2022-11-20T07:39:40;99860.66;;;5.20;79.47
2339;BME280;1180;51.438;6.978;2022-11-20T07:42:06;99860.78;;;5.17;79.72
2339;BME280;1180;51.438;6.978;2022-11-20T07:44:32;99855.88;;;5.12;79.47
2339;BME280;1180;51.438;6.978;2022-11-20T07:46:57;99855.13;;;5.10;80.14
2339;BME280;1180;51.438;6.978;2022-11-20T07:49:23;99853.44;;;5.11;80.30
2339;BME280;1180;51.438;6.978;2022-11-20T07:51:52;99849.16;;;5.11;82.72
2339;BME280;1180;51.438;6.978;2022-11-20T07:54:20;99845.00;;;5.68;87.01
2339;BME280;1180;51.438;6.978;2022-11-20T07:56:47;99835.22;;;5.77;82.89
2339;BME280;1180;51.438;6.978;2022-11-20T07:59:12;99830.88;;;5.60;80.82
2339;BME280;1180;51.438;6.978;2022-11-20T08:01:38;99835.22;;;5.58;80.50
2339;BME280;1180;51.438;6.978;2022-11-20T08:04:04;99829.66;;;5.50;80.67
2339;BME280;1180;51.438;6.978;2022-11-20T08:06:29;99828.72;;;5.53;80.76
2339;BME280;1180;51.438;6.978;2022-11-20T08:08:55;99834.63;;;5.53;80.40
2339;BME280;1180;51.438;6.978;2022-11-20T08:11:20;99830.69;;;5.46;80.99
2339;BME280;1180;51.438;6.978;2022-11-20T08:14:04;99827.25;;;5.47;81.00
2339;BME280;1180;51.438;6.978;2022-11-20T08:16:44;99831.66;;;5.43;80.81
2339;BME280;1180;51.438;6.978;2022-11-20T08:19:10;99833.53;;;5.40;81.38
2339;BME280;1180;51.438;6.978;2022-11-20T08:21:36;99825.13;;;5.38;82.14
2339;BME280;1180;51.438;6.978;2022-11-20T08:24:02;99832.63;;;5.41;82.23
2339;BME280;1180;51.438;6.978;2022-11-20T08:26:27;99829.19;;;5.42;82.45
2339;BME280;1180;51.438;6.978;2022-11-20T08:28:54;99828.91;;;5.48;82.45
2339;BME280;1180;51.438;6.978;2022-11-20T08:31:20;99829.47;;;5.55;81.94
2339;BME280;1180;51.438;6.978;2022-11-20T08:33:46;99838.66;;;5.57;82.02
2339;BME280;1180;51.438;6.978;2022-11-20T08:36:12;99832.81;;;5.74;81.77
2339;BME280;1180;51.438;6.978;2022-11-20T08:38:38;99834.25;;;5.80;81.09
2339;BME280;1180;51.438;6.978;2022-11-20T08:41:04;99834.88;;;5.85;81.54
2339;BME280;1180;51.438;6.978;2022-11-20T08:44:04;99837.97;;;5.92;81.61
2339;BME280;1180;51.438;6.978;2022-11-20T08:46:40;99842.06;;;5.95;81.97
2339;BME280;1180;51.438;6.978;2022-11-20T08:49:11;99843.09;;;6.10;81.62
2339;BME280;1180;51.438;6.978;2022-11-20T08:51:37;99842.59;;;6.20;80.33
2339;BME280;1180;51.438;6.978;2022-11-20T08:54:04;99844.94;;;6.25;79.47
2339;BME280;1180;51.438;6.978;2022-11-20T08:56:30;99848.44;;;6.22;77.46
2339;BME280;1180;51.438;6.978;2022-11-20T08:58:55;99843.06;;;6.29;76.96
2339;BME280;1180;51.438;6.978;2022-11-20T09:01:22;99848.47;;;6.40;76.58
2339;BME280;1180;51.438;6.978;2022-11-20T09:03:48;99842.94;;;6.49;77.35
2339;BME280;1180;51.438;6.978;2022-11-20T09:06:14;99844.22;;;6.58;76.81
2339;BME280;1180;51.438;6.978;2022-11-20T09:08:39;99845.66;;;6.64;77.14
2339;BME280;1180;51.438;6.978;2022-11-20T09:11:05;99847.78;;;6.72;76.00
2339;BME280;1180;51.438;6.978;2022-11-20T09:13:32;99838.75;;;6.66;76.27
2339;BME280;1180;51.438;6.978;2022-11-20T09:16:00;99837.53;;;6.73;76.42
2339;BME280;1180;51.438;6.978;2022-11-20T09:18:27;99837.38;;;6.76;75.02
2339;BME280;1180;51.438;6.978;2022-11-20T09:21:01;99832.88;;;6.82;74.99
2339;BME280;1180;51.438;6.978;2022-11-20T09:23:30;99823.19;;;6.88;74.71
2339;BME280;1180;51.438;6.978;2022-11-20T09:25:56;99826.69;;;6.86;74.62
2339;BME280;1180;51.438;6.978;2022-11-20T09:28:25;99825.31;;;6.80;74.76
2339;BME280;1180;51.438;6.978;2022-11-20T09:30:50;99821.69;;;6.84;75.21
2339;BME280;1180;51.438;6.978;2022-11-20T09:33:16;99816.34;;;6.89;75.25
2339;BME280;1180;51.438;6.978;2022-11-20T09:35:42;99817.69;;;6.96;75.27
2339;BME280;1180;51.438;6.978;2022-11-20T09:38:09;99810.84;;;6.97;74.87
2339;BME280;1180;51.438;6.978;2022-11-20T09:40:38;99814.97;;;6.99;74.99
2339;BME280;1180;51.438;6.978;2022-11-20T09:51:20;99803.31;;;7.27;73.11
2339;BME280;1180;51.438;6.978;2022-11-20T09:56:39;99803.50;;;7.40;73.12
2339;BME280;1180;51.438;6.978;2022-11-20T09:59:10;99800.63;;;7.46;73.55
2339;BME280;1180;51.438;6.978;2022-11-20T10:01:39;99798.41;;;7.56;73.84
2339;BME280;1180;51.438;6.978;2022-11-20T10:04:15;99795.28;;;7.51;72.54
2339;BME280;1180;51.438;6.978;2022-11-20T10:06:56;99787.72;;;7.49;72.50
2339;BME280;1180;51.438;6.978;2022-11-20T10:09:32;99785.47;;;7.43;72.71
2339;BME280;1180;51.438;6.978;2022-11-20T10:20:43;99788.44;;;7.51;71.63
2339;BME280;1180;51.438;6.978;2022-11-20T10:23:18;99780.69;;;7.53;71.38
2339;BME280;1180;51.438;6.978;2022-11-20T10:28:38;99770.72;;;7.64;70.40
2339;BME280;1180;51.438;6.978;2022-11-20T10:31:23;99775.66;;;7.68;71.10
2339;BME280;1180;51.438;6.978;2022-11-20T10:33:51;99755.06;;;7.71;71.74
2339;BME280;1180;51.438;6.978;2022-11-20T10:36:21;99756.53;;;7.75;71.69
2339;BME280;1180;51.438;6.978;2022-11-20T10:39:01;99754.38;;;7.83;71.93
2339;BME280;1180;51.438;6.978;2022-11-20T10:41:40;99747.28;;;7.88;71.41
2339;BME280;1180;51.438;6.978;2022-11-20T10:47:00;99735.38;;;8.03;71.14
2339;BME280;1180;51.438;6.978;2022-11-20T10:49:25;99736.84;;;8.07;71.58
2339;BME280;1180;51.438;6.978;2022-11-20T10:55:00;99742.69;;;8.09;71.14
2339;BME280;1180;51.438;6.978;2022-11-20T11:00:32;99742.00;;;8.22;70.94
2339;BME280;1180;51.438;6.978;2022-11-20T11:02:58;99740.25;;;8.22;71.56
2339;BME280;1180;51.438;6.978;2022-11-20T11:05:44;99738.41;;;8.24;71.45
2339;BME280;1180;51.438;6.978;2022-11-20T11:08:17;99736.69;;;8.25;72.71
2339;BME280;1180;51.438;6.978;2022-11-20T11:13:23;99738.53;;;8.37;71.70
2339;BME280;1180;51.438;6.978;2022-11-20T11:15:49;99727.31;;;8.40;71.18
2339;BME280;1180;51.438;6.978;2022-11-20T11:18:29;99716.19;;;8.41;70.21
2339;BME280;1180;51.438;6.978;2022-11-20T11:20:56;99709.22;;;8.43;71.00
2339;BME280;1180;51.438;6.978;2022-11-20T11:26:04;99698.59;;;8.51;71.13
2339;BME280;1180;51.438;6.978;2022-11-20T11:28:30;99704.13;;;8.58;70.20
2339;BME280;1180;51.438;6.978;2022-11-20T11:30:56;99699.03;;;8.58;70.59
2339;BME280;1180;51.438;6.978;2022-11-20T11:33:26;99689.53;;;8.60;70.89
2339;BME280;1180;51.438;6.978;2022-11-20T11:38:37;99682.22;;;8.68;70.54
2339;BME280;1180;51.438;6.978;2022-11-20T11:41:05;99677.31;;;8.65;70.87
2339;BME280;1180;51.438;6.978;2022-11-20T11:43:33;99669.53;;;8.66;69.58
2339;BME280;1180;51.438;6.978;2022-11-20T11:46:33;99666.63;;;8.58;70.56
2339;BME280;1180;51.438;6.978;2022-11-20T11:51:39;99649.72;;;8.56;71.88
2339;BME280;1180;51.438;6.978;2022-11-20T11:57:15;99647.16;;;8.70;71.05
2339;BME280;1180;51.438;6.978;2022-11-20T12:00:10;99649.06;;;8.81;71.42
2339;BME280;1180;51.438;6.978;2022-11-20T12:05:16;99643.66;;;8.71;70.54
2339;BME280;1180;51.438;6.978;2022-11-20T12:07:46;99639.56;;;8.69;70.60
2339;BME280;1180;51.438;6.978;2022-11-20T12:10:23;99634.91;;;8.75;70.24
2339;BME280;1180;51.438;6.978;2022-11-20T12:12:58;99625.66;;;8.73;69.71
2339;BME280;1180;51.438;6.978;2022-11-20T12:15:29;99620.13;;;8.66;69.70
2339;BME280;1180;51.438;6.978;2022-11-20T12:17:55;99624.59;;;8.62;71.17
2339;BME280;1180;51.438;6.978;2022-11-20T12:20:24;99625.44;;;8.63;70.19
2339;BME280;1180;51.438;6.978;2022-11-20T12:22:58;99619.84;;;8.56;71.04
2339;BME280;1180;51.438;6.978;2022-11-20T12:25:32;99618.09;;;8.57;70.43
2339;BME280;1180;51.438;6.978;2022-11-20T12:33:27;99614.94;;;8.53;71.50
2339;BME280;1180;51.438;6.978;2022-11-20T12:41:50;99597.53;;;8.44;72.37
2339;BME280;1180;51.438;6.978;2022-11-20T12:48:00;99603.13;;;8.50;71.48
2339;BME280;1180;51.438;6.978;2022-11-20T12:53:28;99588.06;;;8.60;71.83
2339;BME280;1180;51.438;6.978;2022-11-20T13:01:35;99562.75;;;8.56;71.34
2339;BME280;1180;51.438;6.978;2022-11-20T13:04:19;99560.50;;;8.51;71.85
2339;BME280;1180;51.438;6.978;2022-11-20T13:06:48;99554.09;;;8.58;71.58
2339;BME280;1180;51.438;6.978;2022-11-20T13:09:17;99550.16;;;8.67;71.81
2339;BME280;1180;51.438;6.978;2022-11-20T13:11:53;99553.63;;;8.66;71.26
2339;BME280;1180;51.438;6.978;2022-11-20T13:17:59;99542.06;;;8.73;71.74
2339;BME280;1180;51.438;6.978;2022-11-20T13:20:26;99538.78;;;8.71;71.67
2339;BME280;1180;51.438;6.978;2022-11-20T13:22:54;99536.56;;;8.79;71.76
2339;BME280;1180;51.438;6.978;2022-11-20T13:25:34;99527.44;;;8.75;70.96
2339;BME280;1180;51.438;6.978;2022-11-20T13:28:26;99516.97;;;8.65;71.44
2339;BME280;1180;51.438;6.978;2022-11-20T13:30:52;99515.25;;;8.66;71.34
2339;BME280;1180;51.438;6.978;2022-11-20T13:33:32;99520.72;;;8.60;71.98
2339;BME280;1180;51.438;6.978;2022-11-20T13:38:27;99511.53;;;8.57;71.99
2339;BME280;1180;51.438;6.978;2022-11-20T13:40:58;99507.13;;;8.59;72.09
2339;BME280;1180;51.438;6.978;2022-11-20T13:43:41;99509.22;;;8.67;72.29
2339;BME280;1180;51.438;6.978;2022-11-20T13:46:09;99510.66;;;8.71;72.44
2339;BME280;1180;51.438;6.978;2022-11-20T13:48:45;99496.13;;;8.72;73.55
2339;BME280;1180;51.438;6.978;2022-11-20T13:51:46;99489.81;;;8.77;74.04
2339;BME280;1180;51.438;6.978;2022-11-20T14:00:09;99477.25;;;8.60;77.26
2339;BME280;1180;51.438;6.978;2022-11-20T14:02:36;99464.78;;;8.55;77.15
2339;BME280;1180;51.438;6.978;2022-11-20T14:05:01;99462.50;;;8.50;78.02
2339;BME280;1180;51.438;6.978;2022-11-20T14:07:35;99460.47;;;8.56;78.31
2339;BME280;1180;51.438;6.978;2022-11-20T14:10:02;99450.88;;;8.59;78.97
2339;BME280;1180;51.438;6.978;2022-11-20T14:12:30;99460.50;;;8.69;77.97
2339;BME280;1180;51.438;6.978;2022-11-20T14:14:57;99443.00;;;8.62;78.32
2339;BME280;1180;51.438;6.978;2022-11-20T14:19:54;99447.31;;;8.47;78.52
2339;BME280;1180;51.438;6.978;2022-11-20T14:22:26;99445.13;;;8.56;78.36
2339;BME280;1180;51.438;6.978;2022-11-20T14:27:40;99420.59;;;8.53;78.27
2339;BME280;1180;51.438;6.978;2022-11-20T14:30:12;99425.50;;;8.42;79.51
2339;BME280;1180;51.438;6.978;2022-11-20T14:32:41;99415.91;;;8.45;79.06
2339;BME280;1180;51.438;6.978;2022-11-20T14:35:09;99415.47;;;8.53;79.06
2339;BME280;1180;51.438;6.978;2022-11-20T14:37:38;99404.97;;;8.43;79.29
2339;BME280;1180;51.438;6.978;2022-11-20T14:42:46;99388.78;;;8.57;79.84
2339;BME280;1180;51.438;6.978;2022-11-20T14:45:12;99393.19;;;8.55;79.87
2339;BME280;1180;51.438;6.978;2022-11-20T14:47:40;99389.28;;;8.62;79.62
2339;BME280;1180;51.438;6.978;2022-11-20T14:50:12;99383.06;;;8.66;79.35
2339;BME280;1180;51.438;6.978;2022-11-20T14:52:50;99382.34;;;8.64;79.40
2339;BME280;1180;51.438;6.978;2022-11-20T14:55:34;99373.72;;;8.52;79.53
2339;BME280;1180;51.438;6.978;2022-11-20T14:58:03;99371.47;;;8.61;79.75
2339;BME280;1180;51.438;6.978;2022-11-20T15:00:30;99357.78;;;8.75;79.23
2339;BME280;1180;51.438;6.978;2022-11-20T15:02:56;99351.44;;;8.67;79.05
2339;BME280;1180;51.438;6.978;2022-11-20T15:05:43;99359.63;;;8.60;79.84
2339;BME280;1180;51.438;6.978;2022-11-20T15:08:10;99356.47;;;8.56;80.52
2339;BME280;1180;51.438;6.978;2022-11-20T15:10:36;99357.97;;;8.59;80.88
2339;BME280;1180;51.438;6.978;2022-11-20T15:13:12;99354.00;;;8.55;81.86
2339;BME280;1180;51.438;6.978;2022-11-20T15:15:51;99346.31;;;8.55;81.49
2339;BME280;1180;51.438;6.978;2022-11-20T15:18:36;99330.97;;;8.55;81.31
2339;BME280;1180;51.438;6.978;2022-11-20T15:21:07;99326.91;;;8.52;81.56
2339;BME280;1180;51.438;6.978;2022-11-20T15:23:35;99321.25;;;8.47;82.54
2339;BME280;1180;51.438;6.978;2022-11-20T15:26:00;99321.88;;;8.50;81.99